PWSweather.com
Personal Weather Stations
Station Observations
PERMAKAI
WaiukuNZ

WaiukuNZ

Lat: -37.22, Lon: 174.77

Elevation: 219.816

Station Type: WH3081

www.permakai.nz

High Low Average
Temperature 63.9°F17.7°F 52.7°F11.5°F 57.5°F14.2°F
Dew Point 56.2°F13.4°F 44.6°F7.0°F 50.4°F10.2°F
Winds 10.7 mph -17.2 mph - 0.7 mph 1.1 mph 5.8 mph 9.3 mph
Wind Gusts 18.3 mph29.5 mph 1.6 mph2.6 mph 9.0 mph14.5 mph
Humidity 91% 57% 78%
Pressure 29.85 in1010.80 in 29.74 in1007.10 in -
Precipitation 0.02 in0.50 in - -
Hour Temp Dew Point Humidity Winds Wind Gusts Pressure Precip Precip Rate Daily Precip Total
12:00 AM 52.9°F11.6°C 44.8°F7.1°C 74% 5.4 mph WSW8.7 kmh WSW 6.9 mph11.1 kmh 29.80 in1009.1 mb 0.00 in0.0 mm 0.00 in0.0 mm 0.00 in0.0 mm
12:30 AM 53.2°F11.8°C 46.9°F8.3°C 79% 5.4 mph W8.7 kmh W 6.9 mph11.1 kmh 29.81 in1009.5 mb 0.00 in0.0 mm 0.00 in0.0 mm 0.00 in0.0 mm
01:00 AM 53.2°F11.8°C 46.9°F8.3°C 79% 4.5 mph SW7.2 kmh SW 6.0 mph9.7 kmh 29.81 in1009.5 mb 0.00 in0.0 mm 0.00 in0.0 mm 0.00 in0.0 mm
01:30 AM 53.4°F11.9°C 47.1°F8.4°C 79% 7.6 mph SW12.2 kmh SW 10.7 mph17.2 kmh 29.81 in1009.5 mb 0.00 in0.0 mm 0.00 in0.0 mm 0.00 in0.0 mm
02:00 AM 52.7°F11.5°C 46.7°F8.2°C 80% 3.8 mph NNW6.1 kmh NNW 5.4 mph8.7 kmh 29.82 in1009.8 mb 0.00 in0.0 mm 0.00 in0.0 mm 0.00 in0.0 mm
02:30 AM 53.6°F12.0°C 46.2°F7.9°C 76% 6.0 mph SW9.7 kmh SW 8.3 mph13.4 kmh 29.81 in1009.5 mb 0.00 in0.0 mm 0.00 in0.0 mm 0.00 in0.0 mm
03:00 AM 53.2°F11.8°C 46.7°F8.2°C 78% 4.9 mph SSW7.9 kmh SSW 7.6 mph12.2 kmh 29.81 in1009.5 mb 0.00 in0.0 mm 0.00 in0.0 mm 0.00 in0.0 mm
03:30 AM 53.1°F11.7°C 46.0°F7.8°C 77% 5.4 mph SW8.7 kmh SW 6.9 mph11.1 kmh 29.81 in1009.5 mb 0.00 in0.0 mm 0.00 in0.0 mm 0.00 in0.0 mm
04:00 AM 52.9°F11.6°C 46.2°F7.9°C 78% 3.1 mph SW5.0 kmh SW 5.4 mph8.7 kmh 29.81 in1009.5 mb 0.01 in0.3 mm 0.02 in0.5 mm 0.01 in0.3 mm
04:30 AM 52.9°F11.6°C 45.9°F7.7°C 77% 3.8 mph SW6.1 kmh SW 5.4 mph8.7 kmh 29.82 in1009.8 mb 0.01 in0.3 mm 0.00 in0.0 mm 0.01 in0.3 mm
05:00 AM 53.1°F11.7°C 44.6°F7.0°C 73% 3.1 mph SW5.0 kmh SW 4.5 mph7.2 kmh 29.82 in1009.8 mb 0.00 in0.0 mm 0.00 in0.0 mm 0.01 in0.3 mm
05:30 AM 53.4°F11.9°C 45.7°F7.6°C 75% 3.8 mph SW6.1 kmh SW 5.4 mph8.7 kmh 29.83 in1010.2 mb 0.00 in0.0 mm 0.00 in0.0 mm 0.01 in0.3 mm
06:00 AM 53.2°F11.8°C 45.5°F7.5°C 75% 2.2 mph W3.5 kmh W 3.8 mph6.1 kmh 29.83 in1010.2 mb 0.00 in0.0 mm 0.00 in0.0 mm 0.01 in0.3 mm
06:30 AM 52.9°F11.6°C 45.9°F7.7°C 77% 0.7 mph W1.1 kmh W 1.6 mph2.6 kmh 29.84 in1010.5 mb 0.00 in0.0 mm 0.00 in0.0 mm 0.01 in0.3 mm
07:00 AM 53.4°F11.9°C 47.1°F8.4°C 79% 0.7 mph WSW1.1 kmh WSW 2.2 mph3.5 kmh 29.84 in1010.5 mb 0.00 in0.0 mm 0.00 in0.0 mm 0.01 in0.3 mm
07:30 AM 53.4°F11.9°C 47.4°F8.6°C 80% 2.2 mph SW3.5 kmh SW 4.5 mph7.2 kmh 29.85 in1010.8 mb 0.00 in0.0 mm 0.00 in0.0 mm 0.01 in0.3 mm
08:00 AM 54.5°F12.5°C 47.8°F8.8°C 78% 3.1 mph SW5.0 kmh SW 4.5 mph7.2 kmh 29.85 in1010.8 mb 0.00 in0.0 mm 0.00 in0.0 mm 0.01 in0.3 mm
08:30 AM 58.1°F14.5°C 49.1°F9.5°C 72% 4.5 mph NW7.2 kmh NW 8.3 mph13.4 kmh 29.85 in1010.8 mb 0.00 in0.0 mm 0.00 in0.0 mm 0.01 in0.3 mm
09:00 AM 58.8°F14.9°C 49.8°F9.9°C 72% 1.6 mph NW2.6 kmh NW 3.8 mph6.1 kmh 29.85 in1010.8 mb 0.00 in0.0 mm 0.00 in0.0 mm 0.01 in0.3 mm
09:30 AM 59.4°F15.2°C 49.6°F9.8°C 70% 3.1 mph SW5.0 kmh SW 6.0 mph9.7 kmh 29.85 in1010.8 mb 0.00 in0.0 mm 0.00 in0.0 mm 0.01 in0.3 mm
10:00 AM 61.2°F16.2°C 49.3°F9.6°C 65% 3.1 mph S5.0 kmh S 5.4 mph8.7 kmh 29.85 in1010.8 mb 0.00 in0.0 mm 0.00 in0.0 mm 0.01 in0.3 mm
10:30 AM 61.2°F16.2°C 50.9°F10.5°C 69% 9.2 mph NW14.8 kmh NW 15.9 mph25.6 kmh 29.84 in1010.5 mb 0.00 in0.0 mm 0.00 in0.0 mm 0.01 in0.3 mm
11:00 AM 59.4°F15.2°C 51.1°F10.6°C 74% 6.0 mph S9.7 kmh S 7.6 mph12.2 kmh 29.85 in1010.8 mb 0.00 in0.0 mm 0.00 in0.0 mm 0.01 in0.3 mm
11:30 AM 61.3°F16.3°C 49.5°F9.7°C 65% 6.0 mph 9.7 kmh 7.6 mph12.2 kmh 29.84 in1010.5 mb 0.00 in0.0 mm 0.00 in0.0 mm 0.01 in0.3 mm
12:00 PM 63.1°F17.3°C 49.0°F9.4°C 60% 7.6 mph NW12.2 kmh NW 9.8 mph15.8 kmh 29.83 in1010.2 mb 0.00 in0.0 mm 0.00 in0.0 mm 0.01 in0.3 mm
12:30 PM 63.9°F17.7°C 48.8°F9.3°C 58% 4.5 mph N7.2 kmh N 6.9 mph11.1 kmh 29.82 in1009.8 mb 0.00 in0.0 mm 0.00 in0.0 mm 0.01 in0.3 mm
01:00 PM 62.8°F17.1°C 47.3°F8.5°C 57% 8.3 mph W13.4 kmh W 13.0 mph20.9 kmh 29.80 in1009.1 mb 0.00 in0.0 mm 0.00 in0.0 mm 0.01 in0.3 mm
01:30 PM 63.9°F17.7°C 48.8°F9.3°C 58% 9.2 mph NW14.8 kmh NW 16.8 mph27.0 kmh 29.79 in1008.8 mb 0.00 in0.0 mm 0.00 in0.0 mm 0.01 in0.3 mm
02:00 PM 60.3°F15.7°C 50.4°F10.2°C 70% 9.2 mph SW14.8 kmh SW 13.0 mph20.9 kmh 29.79 in1008.8 mb 0.00 in0.0 mm 0.00 in0.0 mm 0.01 in0.3 mm
02:30 PM 60.3°F15.7°C 51.6°F10.9°C 73% 6.9 mph W11.1 kmh W 12.1 mph19.5 kmh 29.79 in1008.8 mb 0.00 in0.0 mm 0.00 in0.0 mm 0.01 in0.3 mm
03:00 PM 60.4°F15.8°C 52.1°F11.2°C 74% 7.6 mph NW12.2 kmh NW 13.0 mph20.9 kmh 29.79 in1008.8 mb 0.00 in0.0 mm 0.00 in0.0 mm 0.01 in0.3 mm
03:30 PM 61.2°F16.2°C 52.8°F11.6°C 74% 6.0 mph 9.7 kmh 9.8 mph15.8 kmh 29.78 in1008.5 mb 0.00 in0.0 mm 0.00 in0.0 mm 0.01 in0.3 mm
04:00 PM 60.3°F15.7°C 51.2°F10.7°C 72% 7.6 mph NW12.2 kmh NW 13.6 mph21.9 kmh 29.79 in1008.8 mb 0.00 in0.0 mm 0.00 in0.0 mm 0.01 in0.3 mm
04:30 PM 59.4°F15.2°C 52.1°F11.2°C 77% 7.6 mph NW12.2 kmh NW 11.4 mph18.3 kmh 29.78 in1008.5 mb 0.00 in0.0 mm 0.00 in0.0 mm 0.01 in0.3 mm
05:00 PM 58.8°F14.9°C 53.7°F12.1°C 83% 6.0 mph NW9.7 kmh NW 9.2 mph14.8 kmh 29.78 in1008.5 mb 0.00 in0.0 mm 0.00 in0.0 mm 0.01 in0.3 mm
05:30 PM 58.6°F14.8°C 54.8°F12.7°C 87% 6.0 mph NW9.7 kmh NW 7.6 mph12.2 kmh 29.77 in1008.1 mb 0.00 in0.0 mm 0.00 in0.0 mm 0.01 in0.3 mm
06:00 PM 58.6°F14.8°C 55.1°F12.8°C 88% 6.9 mph NW11.1 kmh NW 11.4 mph18.3 kmh 29.78 in1008.5 mb 0.00 in0.0 mm 0.00 in0.0 mm 0.01 in0.3 mm
06:30 PM 58.5°F14.7°C 55.2°F12.9°C 89% 7.6 mph NW12.2 kmh NW 11.4 mph18.3 kmh 29.78 in1008.5 mb 0.00 in0.0 mm 0.00 in0.0 mm 0.01 in0.3 mm
07:00 PM 58.6°F14.8°C 55.7°F13.2°C 90% 7.9 mph NW12.7 kmh NW 12.1 mph19.5 kmh 29.79 in1008.8 mb 0.00 in0.0 mm 0.00 in0.0 mm 0.01 in0.3 mm
07:30 PM 58.8°F14.9°C 56.2°F13.4°C 91% 6.9 mph WNW11.1 kmh WNW 10.7 mph17.2 kmh 29.77 in1008.1 mb 0.00 in0.0 mm 0.00 in0.0 mm 0.01 in0.3 mm
08:00 PM 58.5°F14.7°C 55.8°F13.2°C 91% 8.3 mph NW13.4 kmh NW 9.8 mph15.8 kmh 29.78 in1008.5 mb 0.00 in0.0 mm 0.00 in0.0 mm 0.01 in0.3 mm
08:30 PM 58.3°F14.6°C 55.7°F13.2°C 91% 9.8 mph WNW15.8 kmh WNW 18.3 mph29.5 kmh 29.77 in1008.1 mb 0.00 in0.0 mm 0.00 in0.0 mm 0.01 in0.3 mm
09:00 PM 58.6°F14.8°C 55.7°F13.2°C 90% 6.9 mph W11.1 kmh W 10.7 mph17.2 kmh 29.77 in1008.1 mb 0.00 in0.0 mm 0.00 in0.0 mm 0.01 in0.3 mm
09:30 PM 58.5°F14.7°C 55.5°F13.1°C 90% 3.8 mph NW6.1 kmh NW 6.9 mph11.1 kmh 29.76 in1007.8 mb 0.00 in0.0 mm 0.00 in0.0 mm 0.01 in0.3 mm
10:00 PM 59.2°F15.1°C 55.6°F13.1°C 88% 10.7 mph WNW17.2 kmh WNW 15.2 mph24.5 kmh 29.76 in1007.8 mb 0.00 in0.0 mm 0.00 in0.0 mm 0.01 in0.3 mm
10:30 PM 59.2°F15.1°C 55.9°F13.3°C 89% 9.8 mph NW15.8 kmh NW 15.2 mph24.5 kmh 29.76 in1007.8 mb 0.00 in0.0 mm 0.00 in0.0 mm 0.01 in0.3 mm
11:00 PM 59.0°F15.0°C 55.8°F13.2°C 89% 8.3 mph WNW13.4 kmh WNW 13.6 mph21.9 kmh 29.75 in1007.5 mb 0.00 in0.0 mm 0.00 in0.0 mm 0.01 in0.3 mm
11:30 PM 58.6°F14.8°C 55.7°F13.2°C 90% 7.6 mph WNW12.2 kmh WNW 11.4 mph18.3 kmh 29.74 in1007.1 mb 0.00 in0.0 mm 0.00 in0.0 mm 0.01 in0.3 mm